createdAt,value
2018-09-14T00:00:21.779Z,14.87
2018-09-14T00:02:50.126Z,13.13
2018-09-14T00:05:18.446Z,14.93
2018-09-14T00:07:46.833Z,15.10
2018-09-14T00:10:15.249Z,16.47
2018-09-14T00:12:43.731Z,16.40
2018-09-14T00:15:12.046Z,17.60
2018-09-14T00:17:40.387Z,14.73
2018-09-14T00:20:08.740Z,16.17
2018-09-14T00:22:37.048Z,13.63
2018-09-14T00:25:05.497Z,14.07
2018-09-14T00:27:33.861Z,15.03
2018-09-14T00:30:02.204Z,17.07
2018-09-14T00:32:30.506Z,17.60
2018-09-14T00:34:58.871Z,13.97
2018-09-14T00:37:27.269Z,13.53
2018-09-14T00:39:55.584Z,16.30
2018-09-14T00:42:23.937Z,15.53
2018-09-14T00:44:52.318Z,15.00
2018-09-14T00:47:20.669Z,15.43
2018-09-14T00:49:49.000Z,16.37
2018-09-14T00:52:17.369Z,14.97
2018-09-14T00:54:45.685Z,15.97
2018-09-14T00:57:14.075Z,16.80
2018-09-14T00:59:42.402Z,16.23
2018-09-14T01:02:10.744Z,16.43
2018-09-14T01:04:39.114Z,15.00
2018-09-14T01:07:07.514Z,16.87
2018-09-14T01:09:35.765Z,16.70
2018-09-14T01:12:04.135Z,14.90
2018-09-14T01:14:32.425Z,12.13
2018-09-14T01:17:00.857Z,15.80
2018-09-14T01:19:29.192Z,15.10
2018-09-14T01:21:57.391Z,17.40
2018-09-14T01:24:25.642Z,15.73
2018-09-14T01:26:53.811Z,16.30
2018-09-14T01:29:22.003Z,17.00
2018-09-14T01:31:50.241Z,15.60
2018-09-14T01:34:18.430Z,16.27
2018-09-14T01:36:46.633Z,18.37
2018-09-14T01:39:14.806Z,17.77
2018-09-14T01:41:43.008Z,15.73
2018-09-14T01:44:11.239Z,16.10
2018-09-14T01:46:39.494Z,16.77
2018-09-14T01:49:07.967Z,15.43
2018-09-14T01:51:36.211Z,19.07
2018-09-14T01:54:04.490Z,17.67
2018-09-14T01:56:32.796Z,15.87
2018-09-14T01:59:00.991Z,15.63
2018-09-14T02:01:29.166Z,16.70
2018-09-14T02:03:57.427Z,18.40
2018-09-14T02:06:26.531Z,14.27
2018-09-14T02:08:55.020Z,14.53
2018-09-14T02:11:23.272Z,14.13
2018-09-14T02:13:51.555Z,15.37
2018-09-14T02:16:19.806Z,16.17
2018-09-14T02:18:47.975Z,16.07
2018-09-14T02:21:16.264Z,16.13
2018-09-14T02:23:44.484Z,14.10
2018-09-14T02:26:12.684Z,17.27
2018-09-14T02:28:40.895Z,15.17
2018-09-14T02:31:09.072Z,17.80
2018-09-14T02:33:37.262Z,14.30
2018-09-14T02:36:05.651Z,17.40
2018-09-14T02:38:33.838Z,16.73
2018-09-14T02:41:02.067Z,17.10
2018-09-14T02:43:30.221Z,18.90
2018-09-14T02:45:58.407Z,15.33
2018-09-14T02:48:26.603Z,17.13
2018-09-14T02:50:54.786Z,19.20
2018-09-14T02:53:22.989Z,16.37
2018-09-14T02:55:51.203Z,17.30
2018-09-14T02:58:19.358Z,21.13
2018-09-14T03:00:47.878Z,19.87
2018-09-14T03:03:16.031Z,19.20
2018-09-14T03:05:44.215Z,15.17
2018-09-14T03:08:12.402Z,20.20
2018-09-14T03:10:40.563Z,20.20
2018-09-14T03:13:08.735Z,18.17
2018-09-14T03:15:36.946Z,18.10
2018-09-14T03:18:05.149Z,15.53
2018-09-14T03:20:33.298Z,18.60
2018-09-14T03:23:01.555Z,19.17
2018-09-14T03:25:29.795Z,18.60
2018-09-14T03:27:58.024Z,17.63
2018-09-14T03:30:26.209Z,20.40
2018-09-14T03:32:54.384Z,18.80
2018-09-14T03:35:22.619Z,18.23
2018-09-14T03:37:50.817Z,17.17
2018-09-14T03:40:19.016Z,19.03
2018-09-14T03:42:47.202Z,17.27
2018-09-14T03:45:15.357Z,17.87
2018-09-14T03:47:43.648Z,16.57
2018-09-14T03:50:11.889Z,17.17
2018-09-14T03:52:40.075Z,16.73
2018-09-14T03:55:08.258Z,17.30
2018-09-14T03:57:36.447Z,18.17
2018-09-14T04:00:04.691Z,20.27
2018-09-14T04:02:32.927Z,18.13
2018-09-14T04:05:01.127Z,21.57
2018-09-14T04:07:29.323Z,21.50
2018-09-14T04:09:57.506Z,21.10
2018-09-14T04:12:25.755Z,19.17
2018-09-14T04:14:53.939Z,22.80
2018-09-14T04:17:22.178Z,23.67
2018-09-14T04:19:50.373Z,16.30
2018-09-14T04:22:18.590Z,19.27
2018-09-14T04:24:46.791Z,18.57
2018-09-14T04:27:14.995Z,19.70
2018-09-14T04:29:43.167Z,17.63
2018-09-14T04:32:11.351Z,18.60
2018-09-14T04:34:39.560Z,20.33
2018-09-14T04:37:07.762Z,16.80
2018-09-14T04:39:36.006Z,19.50
2018-09-14T04:42:04.210Z,22.63
2018-09-14T04:44:32.387Z,18.40
2018-09-14T04:47:00.574Z,19.20
2018-09-14T04:49:28.764Z,16.23
2018-09-14T04:51:56.970Z,20.83
2018-09-14T04:54:25.155Z,19.13
2018-09-14T04:56:53.372Z,15.37
2018-09-14T04:59:21.672Z,19.77
2018-09-14T05:01:49.856Z,18.63
2018-09-14T05:04:18.036Z,19.67
2018-09-14T05:06:46.220Z,21.40
2018-09-14T05:09:14.396Z,14.77
2018-09-14T05:11:42.638Z,17.70
2018-09-14T05:14:10.938Z,20.63
2018-09-14T05:16:39.106Z,19.57
2018-09-14T05:19:07.283Z,21.70
2018-09-14T05:21:35.482Z,20.33
2018-09-14T05:24:03.806Z,20.83
2018-09-14T05:26:32.003Z,22.30
2018-09-14T05:29:00.246Z,17.73
2018-09-14T05:31:28.402Z,23.47
2018-09-14T05:33:56.608Z,18.53
2018-09-14T05:36:24.831Z,20.13
2018-09-14T05:38:53.148Z,17.37
2018-09-14T05:41:21.586Z,19.53
2018-09-14T05:43:49.787Z,18.10
2018-09-14T05:46:18.251Z,22.37
2018-09-14T05:48:46.315Z,18.20
2018-09-14T05:51:14.562Z,21.10
2018-09-14T05:53:42.775Z,19.97
2018-09-14T05:56:10.992Z,19.30
2018-09-14T05:58:39.151Z,21.53
2018-09-14T06:01:07.414Z,18.73
2018-09-14T06:03:35.614Z,21.13
2018-09-14T06:06:03.839Z,20.53
2018-09-14T06:08:32.018Z,21.97
2018-09-14T06:11:00.199Z,19.77
2018-09-14T06:13:28.447Z,22.50
2018-09-14T06:15:56.724Z,22.27
2018-09-14T06:18:25.000Z,20.70
2018-09-14T06:20:53.190Z,24.17
2018-09-14T06:23:21.383Z,21.30
2018-09-14T06:25:49.996Z,20.77
2018-09-14T06:28:18.200Z,21.00
2018-09-14T06:30:46.355Z,22.93
2018-09-14T06:33:14.552Z,24.43
2018-09-14T06:35:42.738Z,24.63
2018-09-14T06:38:11.040Z,22.60
2018-09-14T06:40:39.217Z,24.00
2018-09-14T06:43:07.399Z,24.07
2018-09-14T06:45:35.601Z,23.07
2018-09-14T06:48:03.763Z,23.47
2018-09-14T06:50:32.003Z,22.63
2018-09-14T06:53:00.247Z,22.87
2018-09-14T06:55:28.418Z,22.90
2018-09-14T06:57:56.620Z,22.70
2018-09-14T07:00:24.991Z,22.80
2018-09-14T07:02:53.051Z,22.93
2018-09-14T07:05:21.257Z,28.47
2018-09-14T07:07:49.429Z,21.07
2018-09-14T07:10:17.671Z,25.30
2018-09-14T07:12:45.854Z,25.83
2018-09-14T07:15:14.087Z,24.00
2018-09-14T07:17:42.272Z,23.90
2018-09-14T07:20:10.842Z,23.60
2018-09-14T07:22:39.040Z,24.70
2018-09-14T07:25:07.263Z,26.43
2018-09-14T07:27:35.491Z,25.70
2018-09-14T07:30:03.687Z,25.90
2018-09-14T07:32:31.842Z,27.57
2018-09-14T07:35:00.023Z,27.27
2018-09-14T07:37:28.226Z,30.10
2018-09-14T07:39:56.408Z,25.17
2018-09-14T07:42:24.670Z,23.50
2018-09-14T07:44:52.790Z,23.77
2018-09-14T07:47:21.022Z,30.67
2018-09-14T07:49:49.210Z,26.00
2018-09-14T07:52:17.451Z,28.67
2018-09-14T07:54:45.639Z,30.57
2018-09-14T07:57:13.804Z,28.77
2018-09-14T07:59:41.971Z,29.87
2018-09-14T08:02:10.151Z,28.83
2018-09-14T08:04:38.314Z,31.30
2018-09-14T08:07:06.527Z,31.00
2018-09-14T08:09:34.716Z,30.33
2018-09-14T08:12:02.989Z,30.40
2018-09-14T08:14:31.197Z,27.83
2018-09-14T08:16:59.374Z,33.70
2018-09-14T08:19:27.592Z,29.33
2018-09-14T08:21:55.856Z,28.87
2018-09-14T08:24:23.997Z,33.70
2018-09-14T08:26:52.243Z,33.27
2018-09-14T08:29:20.508Z,33.23
2018-09-14T08:31:48.712Z,31.13
2018-09-14T08:34:23.251Z,28.07
2018-09-14T08:36:51.450Z,29.57
2018-09-14T08:39:19.642Z,36.93
2018-09-14T08:41:47.865Z,28.17
2018-09-14T08:44:16.090Z,28.60
2018-09-14T08:46:44.288Z,29.53
2018-09-14T08:49:12.527Z,29.90
2018-09-14T08:51:40.743Z,31.87
2018-09-14T08:54:08.955Z,28.17
2018-09-14T08:56:37.155Z,31.60
2018-09-14T08:59:05.476Z,28.60
2018-09-14T09:01:33.723Z,29.67
2018-09-14T09:04:02.008Z,32.77
2018-09-14T09:06:30.212Z,33.53
2018-09-14T09:08:58.400Z,34.10
2018-09-14T09:11:26.676Z,29.07
2018-09-14T09:13:54.890Z,33.23
2018-09-14T09:16:23.065Z,33.97
2018-09-14T09:18:51.279Z,34.37
2018-09-14T09:21:20.059Z,35.00
2018-09-14T09:23:48.231Z,33.73
2018-09-14T09:26:16.694Z,34.00
2018-09-14T09:28:44.823Z,37.07
2018-09-14T09:31:13.075Z,33.10
2018-09-14T09:33:41.270Z,37.40
2018-09-14T09:36:09.452Z,37.37
2018-09-14T09:38:37.667Z,40.27
2018-09-14T09:41:06.138Z,36.23
2018-09-14T09:43:34.570Z,39.97
2018-09-14T09:46:02.781Z,35.20
2018-09-14T09:48:30.990Z,31.83
2018-09-14T09:50:59.345Z,38.13
2018-09-14T09:53:27.503Z,38.57
2018-09-14T09:55:55.741Z,39.83
2018-09-14T09:58:24.004Z,41.57
2018-09-14T10:00:57.439Z,37.37
2018-09-14T10:03:30.976Z,39.53
2018-09-14T10:06:04.426Z,45.03
2018-09-14T10:08:32.672Z,42.83
2018-09-14T10:11:00.842Z,42.33
2018-09-14T10:13:29.035Z,42.33
2018-09-14T10:15:57.239Z,37.73
2018-09-14T10:18:25.552Z,41.33
2018-09-14T10:20:53.785Z,38.77
2018-09-14T10:23:21.964Z,37.70
2018-09-14T10:25:50.167Z,36.17
2018-09-14T10:28:18.367Z,34.93
2018-09-14T10:30:46.623Z,39.90
2018-09-14T10:33:14.871Z,38.07
2018-09-14T10:35:43.048Z,32.63
2018-09-14T10:38:11.263Z,33.13
2018-09-14T10:40:39.635Z,34.93
2018-09-14T10:43:07.779Z,34.37
2018-09-14T10:45:36.134Z,32.13
2018-09-14T10:48:04.342Z,32.90
2018-09-14T10:50:32.519Z,33.80
2018-09-14T10:53:00.730Z,32.83
2018-09-14T10:55:28.997Z,32.27
2018-09-14T10:57:57.136Z,21.87
2018-09-14T11:00:25.412Z,21.67
2018-09-14T11:02:53.636Z,18.20
2018-09-14T11:05:21.845Z,15.17
2018-09-14T11:07:50.027Z,17.73
2018-09-14T11:10:18.231Z,16.97
2018-09-14T11:12:46.577Z,13.03
2018-09-14T11:15:14.706Z,16.60
2018-09-14T11:17:42.862Z,14.10
2018-09-14T11:20:11.267Z,20.77
2018-09-14T11:22:39.470Z,16.87
2018-09-14T11:25:07.854Z,19.07
2018-09-14T11:27:35.938Z,20.60
2018-09-14T11:30:04.376Z,16.60
2018-09-14T11:32:33.141Z,14.47
2018-09-14T11:35:01.471Z,14.80
2018-09-14T11:37:29.735Z,11.23
2018-09-14T11:40:00.583Z,13.67
2018-09-14T11:42:29.031Z,18.13
2018-09-14T11:45:01.297Z,15.67
2018-09-14T11:47:29.479Z,17.80
2018-09-14T11:49:57.740Z,12.20
2018-09-14T11:52:26.322Z,17.00
2018-09-14T11:54:55.267Z,18.07
2018-09-14T11:57:23.434Z,17.90
2018-09-14T11:59:51.614Z,12.33
2018-09-14T12:02:22.842Z,11.63
2018-09-14T12:04:51.730Z,14.07
2018-09-14T12:07:19.942Z,15.47
2018-09-14T12:09:48.248Z,11.97
2018-09-14T12:12:16.578Z,10.47
2018-09-14T12:14:44.783Z,12.37
2018-09-14T12:17:13.119Z,13.37
2018-09-14T12:19:41.356Z,14.50
2018-09-14T12:22:09.614Z,9.30
2018-09-14T12:24:37.767Z,11.97
2018-09-14T12:27:06.439Z,10.00
2018-09-14T12:29:34.633Z,10.10
2018-09-14T12:32:02.819Z,12.30
2018-09-14T12:34:31.033Z,10.57
2018-09-14T12:36:59.242Z,12.00
2018-09-14T12:39:27.411Z,10.63
2018-09-14T12:41:55.602Z,8.33
2018-09-14T12:44:23.799Z,10.80
2018-09-14T12:46:51.987Z,10.63
2018-09-14T12:49:20.175Z,15.30
2018-09-14T12:51:48.476Z,10.70
2018-09-14T12:54:16.631Z,9.73
2018-09-14T12:56:45.458Z,11.27
2018-09-14T12:59:20.218Z,14.33
2018-09-14T13:01:48.466Z,12.87
2018-09-14T13:04:16.664Z,8.73
2018-09-14T13:06:44.914Z,10.73
2018-09-14T13:09:13.159Z,11.17
2018-09-14T13:11:41.808Z,10.67
2018-09-14T13:14:10.034Z,9.00
2018-09-14T13:16:38.504Z,9.07
2018-09-14T13:19:06.724Z,9.37
2018-09-14T13:21:34.914Z,11.63
2018-09-14T13:24:03.162Z,10.37
2018-09-14T13:26:31.370Z,7.10
2018-09-14T13:28:59.620Z,9.03
2018-09-14T13:31:27.788Z,7.93
2018-09-14T13:33:56.121Z,10.50
2018-09-14T13:36:24.312Z,8.23
2018-09-14T13:38:52.552Z,7.03
2018-09-14T13:41:20.757Z,7.73
2018-09-14T13:43:48.914Z,8.27
2018-09-14T13:46:17.134Z,8.73
2018-09-14T13:48:45.295Z,8.57
2018-09-14T13:51:13.506Z,6.90
2018-09-14T13:53:41.703Z,10.37
2018-09-14T13:56:09.886Z,7.73
2018-09-14T13:58:38.078Z,10.83
2018-09-14T14:01:06.300Z,11.97
2018-09-14T14:03:34.535Z,8.77
2018-09-14T14:06:02.756Z,7.80
2018-09-14T14:08:30.977Z,9.13
2018-09-14T14:10:59.202Z,10.37
2018-09-14T14:13:27.394Z,9.30
2018-09-14T14:15:55.638Z,10.20
2018-09-14T14:18:23.829Z,6.87
2018-09-14T14:20:52.010Z,7.30
2018-09-14T14:23:20.187Z,6.27
2018-09-14T14:25:48.400Z,8.33
2018-09-14T14:28:16.600Z,6.80
2018-09-14T14:30:44.842Z,10.37
2018-09-14T14:33:13.044Z,9.53
2018-09-14T14:35:41.239Z,8.03
2018-09-14T14:38:09.453Z,9.70
2018-09-14T14:40:37.626Z,6.40
2018-09-14T14:43:05.843Z,6.90
2018-09-14T14:45:34.015Z,6.87
2018-09-14T14:48:02.211Z,7.03
2018-09-14T14:50:30.446Z,10.50
2018-09-14T14:52:58.628Z,6.40
2018-09-14T14:55:26.785Z,6.43
2018-09-14T14:57:54.979Z,6.63
2018-09-14T15:00:23.236Z,9.03
2018-09-14T15:02:51.500Z,9.60
2018-09-14T15:05:19.800Z,6.90
2018-09-14T15:07:48.011Z,7.50
2018-09-14T15:10:16.227Z,9.27
2018-09-14T15:12:44.424Z,7.23
2018-09-14T15:15:12.603Z,7.00
2018-09-14T15:17:40.827Z,9.17
2018-09-14T15:20:09.014Z,6.03
2018-09-14T15:22:37.208Z,4.97
2018-09-14T15:25:05.428Z,7.87
2018-09-14T15:27:33.674Z,6.27
2018-09-14T15:30:01.983Z,7.60
2018-09-14T15:32:30.131Z,5.37
2018-09-14T15:34:58.323Z,5.10
2018-09-14T15:37:26.538Z,5.13
2018-09-14T15:39:54.783Z,4.93
2018-09-14T15:42:23.070Z,5.73
2018-09-14T15:44:51.256Z,5.03
2018-09-14T15:47:19.610Z,4.23
2018-09-14T15:49:47.783Z,4.53
2018-09-14T15:52:16.071Z,6.03
2018-09-14T15:54:44.317Z,4.07
2018-09-14T15:57:12.542Z,7.03
2018-09-14T15:59:40.744Z,4.07
2018-09-14T16:02:08.940Z,7.13
2018-09-14T16:04:37.199Z,6.00
2018-09-14T16:07:05.423Z,4.77
2018-09-14T16:09:33.644Z,4.93
2018-09-14T16:12:01.868Z,5.07
2018-09-14T16:14:30.095Z,6.60
2018-09-14T16:16:58.333Z,7.50
2018-09-14T16:19:26.535Z,6.47
2018-09-14T16:21:54.739Z,4.00
2018-09-14T16:24:23.005Z,7.07
2018-09-14T16:26:51.264Z,6.23
2018-09-14T16:29:19.511Z,8.10
2018-09-14T16:31:47.781Z,7.33
2018-09-14T16:34:15.915Z,6.00
2018-09-14T16:36:44.088Z,5.97
2018-09-14T16:39:12.866Z,4.43
2018-09-14T16:41:41.471Z,5.57
2018-09-14T16:44:10.140Z,4.67
2018-09-14T16:46:38.768Z,7.37
2018-09-14T16:49:07.439Z,5.57
2018-09-14T16:51:35.646Z,4.93
2018-09-14T16:54:03.914Z,4.57
2018-09-14T16:56:32.123Z,4.93
2018-09-14T16:59:00.376Z,6.00
2018-09-14T17:01:28.546Z,5.43
2018-09-14T17:03:56.720Z,4.87
2018-09-14T17:06:24.913Z,4.37
2018-09-14T17:08:53.194Z,4.37
2018-09-14T17:11:21.399Z,4.63
2018-09-14T17:13:49.587Z,4.07
2018-09-14T17:16:17.827Z,3.80
2018-09-14T17:18:46.174Z,3.90
2018-09-14T17:21:14.522Z,3.87
2018-09-14T17:23:42.641Z,2.73
2018-09-14T17:26:10.812Z,3.73
2018-09-14T17:28:38.999Z,5.60
2018-09-14T17:31:07.175Z,4.20
2018-09-14T17:33:35.447Z,5.27
2018-09-14T17:36:03.643Z,3.87
2018-09-14T17:38:31.976Z,4.23
2018-09-14T17:41:00.215Z,4.93
2018-09-14T17:43:28.415Z,2.67
2018-09-14T17:45:56.610Z,3.30
2018-09-14T17:48:24.819Z,5.30
2018-09-14T17:50:53.007Z,5.03
2018-09-14T17:53:21.173Z,3.97
2018-09-14T17:55:49.363Z,5.90
2018-09-14T17:58:17.602Z,3.80
2018-09-14T18:00:45.770Z,3.73
2018-09-14T18:03:13.977Z,4.07
2018-09-14T18:05:42.110Z,4.63
2018-09-14T18:08:10.270Z,3.53
2018-09-14T18:10:38.492Z,5.43
2018-09-14T18:13:06.687Z,2.73
2018-09-14T18:15:34.887Z,3.23
2018-09-14T18:18:03.095Z,3.43
2018-09-14T18:20:31.368Z,2.17
2018-09-14T18:22:59.571Z,3.00
2018-09-14T18:25:27.803Z,2.70
2018-09-14T18:27:56.052Z,4.23
2018-09-14T18:30:24.203Z,4.47
2018-09-14T18:32:52.466Z,5.00
2018-09-14T18:35:20.733Z,3.63
2018-09-14T18:37:49.010Z,5.80
2018-09-14T18:40:17.151Z,4.93
2018-09-14T18:42:45.322Z,3.00
2018-09-14T18:45:13.573Z,3.83
2018-09-14T18:47:41.817Z,4.97
2018-09-14T18:50:10.034Z,4.13
2018-09-14T18:52:38.262Z,2.47
2018-09-14T18:55:06.556Z,5.37
2018-09-14T18:57:34.755Z,4.73
2018-09-14T19:00:02.928Z,4.73
2018-09-14T19:02:31.090Z,3.03
2018-09-14T19:04:59.275Z,8.47
2018-09-14T19:07:27.457Z,5.03
2018-09-14T19:09:58.566Z,7.40
2018-09-14T19:12:26.752Z,6.60
2018-09-14T19:14:54.978Z,5.90
2018-09-14T19:17:23.194Z,4.97
2018-09-14T19:19:51.391Z,2.47
2018-09-14T19:22:19.569Z,4.97
2018-09-14T19:24:47.816Z,5.20
2018-09-14T19:27:15.979Z,3.07
2018-09-14T19:29:44.165Z,4.30
2018-09-14T19:32:12.336Z,4.17
2018-09-14T19:34:40.519Z,8.23
2018-09-14T19:37:08.698Z,4.63
2018-09-14T19:39:36.875Z,4.47
2018-09-14T19:42:05.069Z,6.20
2018-09-14T19:44:33.243Z,5.43
2018-09-14T19:47:01.409Z,6.03
2018-09-14T19:49:29.615Z,6.73
2018-09-14T19:51:57.828Z,3.13
2018-09-14T19:54:26.031Z,6.13
2018-09-14T19:56:54.258Z,6.23
2018-09-14T19:59:22.431Z,7.17
2018-09-14T20:01:50.602Z,4.60
2018-09-14T20:04:18.811Z,6.07
2018-09-14T20:06:47.047Z,5.43
2018-09-14T20:09:15.523Z,6.13
2018-09-14T20:11:44.148Z,5.33
2018-09-14T20:14:12.349Z,3.03
2018-09-14T20:16:40.605Z,4.60
2018-09-14T20:19:08.846Z,5.30
2018-09-14T20:21:37.052Z,7.57
2018-09-14T20:24:05.228Z,3.93
2018-09-14T20:26:33.425Z,5.10
2018-09-14T20:29:01.701Z,4.23
2018-09-14T20:31:29.916Z,8.87
2018-09-14T20:33:58.105Z,5.57
2018-09-14T20:36:26.269Z,4.90
2018-09-14T20:38:54.507Z,6.20
2018-09-14T20:41:22.700Z,3.97
2018-09-14T20:43:51.011Z,7.00
2018-09-14T20:46:19.307Z,5.33
2018-09-14T20:48:48.775Z,6.00
2018-09-14T20:51:16.927Z,6.87
2018-09-14T20:53:45.116Z,4.10
2018-09-14T20:56:13.321Z,7.77
2018-09-14T20:58:41.563Z,8.60
2018-09-14T21:01:10.076Z,5.60
2018-09-14T21:03:38.459Z,4.60
2018-09-14T21:06:06.827Z,6.67
2018-09-14T21:08:35.186Z,5.87
2018-09-14T21:11:03.355Z,5.10
2018-09-14T21:13:31.523Z,4.37
2018-09-14T21:15:59.703Z,6.30
2018-09-14T21:18:27.926Z,6.63
2018-09-14T21:20:56.170Z,5.67
2018-09-14T21:23:24.384Z,5.53
2018-09-14T21:25:53.286Z,5.23
2018-09-14T21:28:21.719Z,5.87
2018-09-14T21:30:50.150Z,4.80
2018-09-14T21:33:18.433Z,5.90
2018-09-14T21:35:46.658Z,4.90
2018-09-14T21:38:15.003Z,4.90
2018-09-14T21:40:43.290Z,9.57
2018-09-14T21:43:11.931Z,7.03
2018-09-14T21:45:40.242Z,7.93
2018-09-14T21:48:08.460Z,4.80
2018-09-14T21:50:36.621Z,5.53
2018-09-14T21:53:04.862Z,6.27
2018-09-14T21:55:33.173Z,8.40
2018-09-14T21:58:01.527Z,7.83
2018-09-14T22:01:37.067Z,6.07
2018-09-14T22:04:05.488Z,5.70
2018-09-14T22:06:33.699Z,5.30
2018-09-14T22:09:02.026Z,7.97
2018-09-14T22:11:30.338Z,7.33
2018-09-14T22:13:58.572Z,7.23
2018-09-14T22:16:26.852Z,7.57
2018-09-14T22:18:55.124Z,7.33
2018-09-14T22:21:23.425Z,8.90
2018-09-14T22:23:51.654Z,7.53
2018-09-14T22:26:19.946Z,7.97
2018-09-14T22:28:48.392Z,7.93
2018-09-14T22:31:16.695Z,5.80
2018-09-14T22:33:44.971Z,9.40
2018-09-14T22:36:13.224Z,10.47
2018-09-14T22:38:41.470Z,7.57
2018-09-14T22:41:09.799Z,7.80
2018-09-14T22:43:38.166Z,4.63
2018-09-14T22:46:06.398Z,5.77
2018-09-14T22:48:34.579Z,7.50
2018-09-14T22:51:02.738Z,5.30
2018-09-14T22:53:30.919Z,6.23
2018-09-14T22:55:59.130Z,7.47
2018-09-14T22:58:27.306Z,7.63
2018-09-14T23:01:00.843Z,7.17
2018-09-14T23:03:29.011Z,5.43
2018-09-14T23:05:57.244Z,8.33
2018-09-14T23:08:25.442Z,5.50
2018-09-14T23:10:53.600Z,6.20
2018-09-14T23:13:21.790Z,4.33
2018-09-14T23:15:53.315Z,6.70
2018-09-14T23:18:21.491Z,6.87
2018-09-14T23:20:49.646Z,9.47
2018-09-14T23:23:17.899Z,6.27
2018-09-14T23:25:46.067Z,4.97
2018-09-14T23:28:14.227Z,6.70
2018-09-14T23:30:42.389Z,6.13
2018-09-14T23:33:10.558Z,6.23
2018-09-14T23:35:38.762Z,4.27
2018-09-14T23:38:06.985Z,6.57
2018-09-14T23:40:35.982Z,5.33
2018-09-14T23:43:04.135Z,5.13
2018-09-14T23:45:32.547Z,5.87
2018-09-14T23:48:00.779Z,5.57
2018-09-14T23:50:28.991Z,3.80
2018-09-14T23:52:57.256Z,5.47
2018-09-14T23:55:25.428Z,4.73
2018-09-14T23:57:53.616Z,6.23
